createdAt,value
2019-06-10T00:01:21.369Z,9.13
2019-06-10T00:03:51.911Z,10.23
2019-06-10T00:06:21.706Z,8.40
2019-06-10T00:08:51.315Z,8.65
2019-06-10T00:11:21.268Z,8.70
2019-06-10T00:13:50.854Z,7.90
2019-06-10T00:16:20.830Z,8.58
2019-06-10T00:18:51.172Z,8.88
2019-06-10T00:21:21.729Z,8.83
2019-06-10T00:23:51.938Z,8.95
2019-06-10T00:26:22.378Z,8.93
2019-06-10T00:28:51.674Z,8.50
2019-06-10T00:31:21.128Z,8.05
2019-06-10T00:33:51.986Z,8.50
2019-06-10T00:36:21.694Z,8.68
2019-06-10T00:38:52.161Z,8.68
2019-06-10T00:41:21.978Z,8.58
2019-06-10T00:43:51.795Z,9.23
2019-06-10T00:46:21.354Z,8.70
2019-06-10T00:48:51.138Z,7.62
2019-06-10T00:51:20.922Z,8.85
2019-06-10T00:53:51.432Z,8.10
2019-06-10T00:56:21.510Z,8.33
2019-06-10T00:58:51.517Z,7.90
2019-06-10T01:01:22.109Z,8.30
2019-06-10T01:03:51.410Z,8.33
2019-06-10T01:06:21.348Z,9.48
2019-06-10T01:08:51.347Z,8.03
2019-06-10T01:11:26.656Z,7.95
2019-06-10T01:13:51.700Z,8.10
2019-06-10T01:16:21.627Z,8.20
2019-06-10T01:18:53.470Z,8.53
2019-06-10T01:21:22.111Z,8.43
2019-06-10T01:23:51.496Z,8.90
2019-06-10T01:26:21.732Z,7.90
2019-06-10T01:28:51.679Z,8.13
2019-06-10T01:31:24.238Z,8.35
2019-06-10T01:33:51.987Z,7.87
2019-06-10T01:36:21.298Z,7.83
2019-06-10T01:38:51.122Z,7.80
2019-06-10T01:41:21.458Z,8.35
2019-06-10T01:43:51.434Z,8.18
2019-06-10T01:46:21.239Z,7.85
2019-06-10T01:48:52.177Z,8.18
2019-06-10T01:51:21.695Z,8.40
2019-06-10T01:53:51.491Z,8.20
2019-06-10T01:56:21.563Z,8.25
2019-06-10T01:58:51.529Z,8.33
2019-06-10T02:01:23.542Z,7.95
2019-06-10T02:03:53.902Z,8.80
2019-06-10T02:06:25.806Z,7.70
2019-06-10T02:08:55.821Z,8.03
2019-06-10T02:11:25.093Z,8.50
2019-06-10T02:13:54.400Z,8.43
2019-06-10T02:16:24.167Z,7.85
2019-06-10T02:19:00.332Z,8.40
2019-06-10T02:21:24.631Z,8.18
2019-06-10T02:23:53.906Z,7.90
2019-06-10T02:26:23.691Z,8.30
2019-06-10T02:28:53.115Z,8.60
2019-06-10T02:31:30.023Z,8.20
2019-06-10T02:33:53.485Z,9.93
2019-06-10T02:36:30.821Z,9.20
2019-06-10T02:38:54.163Z,8.33
2019-06-10T02:41:31.746Z,8.45
2019-06-10T02:43:54.343Z,8.30
2019-06-10T02:46:30.666Z,8.90
2019-06-10T02:48:54.677Z,8.28
2019-06-10T02:51:30.222Z,8.15
2019-06-10T02:53:54.922Z,8.65
2019-06-10T02:56:28.404Z,8.38
2019-06-10T02:58:55.129Z,8.65
2019-06-10T03:01:32.169Z,8.78
2019-06-10T03:03:55.324Z,8.93
2019-06-10T03:06:32.444Z,8.43
2019-06-10T03:08:56.612Z,8.30
2019-06-10T03:11:28.106Z,9.08
2019-06-10T03:13:56.832Z,8.10
2019-06-10T03:16:33.948Z,8.30
2019-06-10T03:19:04.296Z,8.35
2019-06-10T03:21:33.586Z,9.23
2019-06-10T03:24:03.858Z,9.30
2019-06-10T03:26:33.143Z,8.65
2019-06-10T03:29:02.827Z,8.65
2019-06-10T03:31:41.112Z,8.75
2019-06-10T03:34:05.114Z,9.15
2019-06-10T03:36:34.037Z,8.65
2019-06-10T03:39:04.276Z,8.45
2019-06-10T03:41:34.536Z,8.23
2019-06-10T03:44:03.809Z,8.38
2019-06-10T03:46:33.269Z,8.28
2019-06-10T03:49:03.189Z,8.63
2019-06-10T03:51:33.307Z,9.13
2019-06-10T03:54:02.833Z,9.28
2019-06-10T03:56:32.405Z,8.63
2019-06-10T03:59:02.784Z,8.38
2019-06-10T04:01:33.324Z,8.70
2019-06-10T04:04:02.708Z,9.20
2019-06-10T04:06:33.691Z,9.00
2019-06-10T04:09:03.031Z,9.20
2019-06-10T04:11:35.543Z,9.40
2019-06-10T04:14:04.288Z,9.40
2019-06-10T04:16:33.713Z,9.08
2019-06-10T04:19:02.997Z,9.63
2019-06-10T04:21:32.760Z,9.50
2019-06-10T04:24:02.500Z,10.20
2019-06-10T04:26:32.699Z,9.25
2019-06-10T04:29:02.628Z,9.15
2019-06-10T04:31:33.034Z,9.43
2019-06-10T04:34:03.248Z,9.55
2019-06-10T04:36:33.347Z,9.88
2019-06-10T04:39:05.959Z,9.78
2019-06-10T04:41:35.252Z,9.50
2019-06-10T04:44:04.565Z,10.28
2019-06-10T04:46:33.860Z,9.73
2019-06-10T04:49:03.180Z,9.55
2019-06-10T04:51:33.020Z,9.45
2019-06-10T04:54:03.117Z,9.95
2019-06-10T04:56:33.835Z,9.95
2019-06-10T04:59:03.307Z,9.70
2019-06-10T05:01:33.569Z,9.83
2019-06-10T05:04:03.354Z,9.53
2019-06-10T05:06:32.945Z,11.20
2019-06-10T05:09:04.219Z,9.48
2019-06-10T05:11:33.289Z,9.33
2019-06-10T05:14:03.216Z,9.25
2019-06-10T05:16:35.694Z,9.73
2019-06-10T05:19:03.918Z,10.18
2019-06-10T05:21:33.857Z,9.33
2019-06-10T05:24:03.194Z,10.10
2019-06-10T05:26:33.530Z,9.50
2019-06-10T05:29:03.322Z,9.58
2019-06-10T05:31:35.061Z,10.38
2019-06-10T05:34:03.941Z,10.28
2019-06-10T05:36:34.651Z,16.75
2019-06-10T05:39:07.122Z,13.53
2019-06-10T05:41:36.425Z,13.22
2019-06-10T05:44:05.756Z,13.30
2019-06-10T05:46:35.189Z,15.15
2019-06-10T05:49:04.426Z,17.32
2019-06-10T05:51:35.274Z,15.53
2019-06-10T05:54:04.831Z,15.43
2019-06-10T05:56:35.747Z,14.05
2019-06-10T05:59:05.189Z,16.35
2019-06-10T06:01:38.325Z,17.57
2019-06-10T06:04:06.495Z,13.85
2019-06-10T06:06:37.403Z,12.95
2019-06-10T06:09:07.985Z,15.05
2019-06-10T06:11:37.766Z,16.48
2019-06-10T06:14:07.275Z,16.27
2019-06-10T06:16:36.634Z,17.42
2019-06-10T06:19:07.235Z,15.28
2019-06-10T06:21:42.727Z,17.20
2019-06-10T06:24:07.554Z,17.87
2019-06-10T06:26:38.382Z,14.25
2019-06-10T06:29:07.857Z,15.10
2019-06-10T06:31:37.722Z,16.93
2019-06-10T06:34:07.077Z,16.40
2019-06-10T06:36:37.911Z,17.10
2019-06-10T06:39:07.854Z,18.73
2019-06-10T06:41:37.650Z,16.62
2019-06-10T06:44:08.065Z,17.67
2019-06-10T06:46:39.238Z,18.02
2019-06-10T06:49:08.426Z,19.55
2019-06-10T06:51:51.711Z,17.00
2019-06-10T06:54:09.796Z,16.37
2019-06-10T06:56:43.758Z,15.95
2019-06-10T06:59:13.174Z,14.70
2019-06-10T07:01:44.635Z,15.68
2019-06-10T07:04:14.228Z,16.80
2019-06-10T07:06:43.557Z,14.43
2019-06-10T07:09:13.612Z,17.65
2019-06-10T07:11:45.115Z,17.40
2019-06-10T07:14:15.200Z,15.48
2019-06-10T07:16:46.521Z,13.20
2019-06-10T07:19:15.433Z,15.55
2019-06-10T07:22:05.616Z,17.17
2019-06-10T07:24:16.954Z,15.78
2019-06-10T07:26:54.058Z,16.17
2019-06-10T07:29:18.345Z,13.98
2019-06-10T07:31:50.283Z,13.90
2019-06-10T07:34:18.719Z,13.83
2019-06-10T07:36:48.154Z,16.35
2019-06-10T07:39:17.600Z,13.48
2019-06-10T07:41:48.158Z,18.30
2019-06-10T07:44:17.560Z,17.05
2019-06-10T07:46:46.872Z,18.95
2019-06-10T07:49:16.257Z,18.05
2019-06-10T07:51:46.452Z,17.07
2019-06-10T07:54:16.897Z,16.37
2019-06-10T07:56:50.239Z,14.63
2019-06-10T07:59:19.243Z,16.57
2019-06-10T08:01:51.775Z,16.20
2019-06-10T08:04:19.749Z,16.42
2019-06-10T08:06:49.990Z,17.30
2019-06-10T08:09:20.034Z,19.15
2019-06-10T08:11:49.426Z,16.75
2019-06-10T08:14:18.904Z,18.57
2019-06-10T08:16:48.684Z,17.92
2019-06-10T08:19:31.692Z,14.60
2019-06-10T08:21:50.171Z,16.48
2019-06-10T08:24:19.437Z,19.73
2019-06-10T08:26:48.738Z,15.40
2019-06-10T08:29:18.063Z,14.28
2019-06-10T08:31:48.423Z,18.40
2019-06-10T08:34:18.265Z,18.12
2019-06-10T08:36:50.572Z,16.12
2019-06-10T08:39:18.485Z,16.25
2019-06-10T08:41:49.188Z,14.53
2019-06-10T08:44:18.716Z,18.65
2019-06-10T08:46:48.704Z,17.00
2019-06-10T08:49:18.105Z,21.87
2019-06-10T08:51:50.026Z,20.68
2019-06-10T08:54:18.412Z,17.27
2019-06-10T08:56:50.773Z,19.77
2019-06-10T08:59:19.540Z,18.23
2019-06-10T09:01:55.440Z,14.20
2019-06-10T09:04:19.841Z,17.20
2019-06-10T09:06:50.742Z,18.20
2019-06-10T09:09:22.461Z,17.70
2019-06-10T09:11:54.471Z,16.25
2019-06-10T09:14:23.430Z,15.68
2019-06-10T09:16:54.256Z,19.70
2019-06-10T09:19:25.115Z,15.45
2019-06-10T09:21:56.439Z,16.15
2019-06-10T09:24:27.276Z,16.57
2019-06-10T09:26:56.645Z,16.17
2019-06-10T09:29:25.933Z,13.80
2019-06-10T09:31:55.913Z,16.12
2019-06-10T09:34:25.528Z,15.32
2019-06-10T09:36:56.820Z,15.63
2019-06-10T09:39:25.835Z,17.27
2019-06-10T09:42:02.195Z,15.32
2019-06-10T09:44:26.201Z,15.53
2019-06-10T09:46:56.470Z,14.63
2019-06-10T09:49:26.529Z,20.75
2019-06-10T09:51:57.485Z,15.28
2019-06-10T09:54:27.964Z,16.45
2019-06-10T09:56:58.472Z,17.67
2019-06-10T09:59:27.792Z,16.87
2019-06-10T10:02:01.729Z,18.15
2019-06-10T10:04:28.080Z,14.05
2019-06-10T10:06:57.640Z,14.78
2019-06-10T10:09:26.957Z,16.45
2019-06-10T10:11:56.427Z,14.33
2019-06-10T10:14:26.645Z,14.85
2019-06-10T10:17:00.262Z,15.60
2019-06-10T10:19:26.885Z,15.43
2019-06-10T10:21:58.455Z,14.93
2019-06-10T10:24:28.235Z,12.40
2019-06-10T10:27:01.774Z,13.35
2019-06-10T10:29:29.645Z,15.18
2019-06-10T10:31:58.930Z,13.60
2019-06-10T10:34:28.253Z,14.60
2019-06-10T10:36:57.628Z,12.25
2019-06-10T10:39:27.071Z,14.87
2019-06-10T10:41:57.232Z,14.63
2019-06-10T10:44:26.764Z,12.28
2019-06-10T10:46:56.072Z,11.70
2019-06-10T10:49:25.465Z,13.58
2019-06-10T10:51:55.905Z,12.88
2019-06-10T10:54:32.800Z,13.60
2019-06-10T10:56:58.992Z,13.08
2019-06-10T10:59:27.581Z,12.68
2019-06-10T11:01:56.873Z,13.98
2019-06-10T11:04:26.265Z,12.85
2019-06-10T11:06:57.206Z,14.53
2019-06-10T11:09:26.532Z,12.80
2019-06-10T11:11:57.383Z,12.95
2019-06-10T11:14:26.771Z,11.12
2019-06-10T11:16:57.479Z,15.70
2019-06-10T11:19:27.219Z,13.72
2019-06-10T11:21:57.815Z,11.45
2019-06-10T11:24:35.876Z,11.57
2019-06-10T11:26:59.560Z,11.70
2019-06-10T11:29:28.850Z,11.50
2019-06-10T11:31:58.801Z,11.43
2019-06-10T11:34:29.452Z,11.00
2019-06-10T11:36:58.830Z,11.50
2019-06-10T11:39:28.113Z,10.82
2019-06-10T11:41:57.710Z,13.18
2019-06-10T11:44:27.161Z,10.48
2019-06-10T11:46:58.093Z,11.15
2019-06-10T11:49:27.524Z,11.15
2019-06-10T11:51:59.483Z,14.90
2019-06-10T11:54:27.904Z,9.93
2019-06-10T11:56:58.563Z,11.10
2019-06-10T11:59:28.307Z,10.78
2019-06-10T12:02:00.419Z,11.38
2019-06-10T12:04:28.581Z,10.75
2019-06-10T12:06:58.970Z,10.40
2019-06-10T12:09:29.561Z,11.05
2019-06-10T12:12:02.119Z,10.55
2019-06-10T12:14:29.860Z,10.28
2019-06-10T12:17:21.914Z,11.03
2019-06-10T12:19:33.848Z,10.13
2019-06-10T12:22:07.096Z,10.98
2019-06-10T12:24:33.955Z,10.72
2019-06-10T12:27:05.127Z,10.30
2019-06-10T12:29:34.992Z,10.68
2019-06-10T12:32:07.456Z,12.13
2019-06-10T12:34:36.923Z,12.05
2019-06-10T12:37:12.020Z,11.18
2019-06-10T12:39:37.217Z,12.63
2019-06-10T12:42:06.843Z,12.90
2019-06-10T12:44:36.231Z,11.83
2019-06-10T12:47:07.565Z,12.07
2019-06-10T12:49:36.458Z,12.35
2019-06-10T12:52:07.583Z,12.25
2019-06-10T12:54:36.708Z,14.50
2019-06-10T12:57:06.992Z,13.15
2019-06-10T12:59:37.709Z,12.68
2019-06-10T13:02:21.336Z,12.60
2019-06-10T13:04:39.213Z,11.88
2019-06-10T13:07:08.917Z,13.00
2019-06-10T13:09:39.454Z,11.35
2019-06-10T13:12:08.752Z,11.85
2019-06-10T13:14:38.144Z,12.30
2019-06-10T13:17:08.435Z,11.93
2019-06-10T13:19:38.824Z,11.68
2019-06-10T13:22:08.909Z,11.80
2019-06-10T13:24:38.231Z,11.73
2019-06-10T13:27:08.367Z,12.80
2019-06-10T13:29:37.845Z,12.00
2019-06-10T13:32:08.079Z,11.78
2019-06-10T13:34:37.469Z,12.18
2019-06-10T13:37:08.509Z,11.55
2019-06-10T13:39:37.716Z,12.10
2019-06-10T13:42:09.950Z,13.32
2019-06-10T13:44:37.968Z,11.93
2019-06-10T13:47:10.592Z,10.98
2019-06-10T13:49:38.367Z,11.57
2019-06-10T13:52:11.629Z,12.05
2019-06-10T13:54:38.721Z,11.50
2019-06-10T13:57:09.753Z,11.70
2019-06-10T13:59:39.102Z,13.98
2019-06-10T14:02:10.291Z,11.30
2019-06-10T14:04:39.393Z,10.93
2019-06-10T14:07:11.963Z,11.40
2019-06-10T14:09:39.734Z,11.10
2019-06-10T14:12:10.178Z,11.18
2019-06-10T14:14:42.387Z,11.60
2019-06-10T14:17:15.883Z,11.73
2019-06-10T14:19:43.240Z,11.90
2019-06-10T14:22:15.991Z,11.35
2019-06-10T14:24:44.073Z,13.08
2019-06-10T14:27:16.763Z,11.53
2019-06-10T14:29:44.614Z,12.43
2019-06-10T14:32:15.652Z,11.22
2019-06-10T14:34:45.174Z,11.88
2019-06-10T14:37:23.870Z,13.25
2019-06-10T14:39:46.496Z,11.18
2019-06-10T14:42:16.356Z,10.23
2019-06-10T14:44:45.714Z,10.50
2019-06-10T14:47:16.693Z,16.40
2019-06-10T14:49:46.141Z,10.38
2019-06-10T14:52:16.863Z,10.68
2019-06-10T14:54:46.399Z,14.13
2019-06-10T14:57:16.832Z,12.82
2019-06-10T14:59:47.100Z,12.15
2019-06-10T15:02:17.457Z,14.40
2019-06-10T15:04:46.996Z,11.15
2019-06-10T15:07:16.285Z,11.53
2019-06-10T15:09:45.588Z,10.32
2019-06-10T15:12:17.157Z,10.68
2019-06-10T15:14:45.808Z,10.03
2019-06-10T15:17:16.657Z,11.18
2019-06-10T15:19:47.297Z,9.58
2019-06-10T15:22:19.934Z,10.15
2019-06-10T15:24:49.431Z,10.30
2019-06-10T15:27:24.736Z,10.58
2019-06-10T15:29:52.555Z,10.93
2019-06-10T15:32:33.691Z,13.20
2019-06-10T15:34:52.555Z,12.73
2019-06-10T15:37:24.169Z,15.38
2019-06-10T15:39:54.815Z,11.33
2019-06-10T15:42:24.145Z,11.97
2019-06-10T15:44:56.013Z,11.78
2019-06-10T15:47:26.590Z,12.85
2019-06-10T15:49:56.015Z,12.00
2019-06-10T15:52:26.201Z,9.83
2019-06-10T15:54:55.496Z,10.35
2019-06-10T15:57:38.562Z,11.00
2019-06-10T15:59:55.797Z,8.95
2019-06-10T16:02:25.699Z,11.75
2019-06-10T16:04:55.026Z,11.63
2019-06-10T16:07:25.605Z,12.40
2019-06-10T16:09:55.139Z,10.93
2019-06-10T16:12:26.785Z,12.37
2019-06-10T16:14:55.364Z,9.75
2019-06-10T16:17:24.667Z,10.25
2019-06-10T16:19:53.968Z,9.00
2019-06-10T16:22:24.903Z,10.40
2019-06-10T16:24:54.195Z,11.05
2019-06-10T16:27:43.056Z,9.85
2019-06-10T16:29:54.415Z,9.25
2019-06-10T16:32:26.432Z,9.65
2019-06-10T16:34:56.014Z,8.45
2019-06-10T16:37:25.762Z,9.38
2019-06-10T16:39:56.566Z,9.75
2019-06-10T16:42:27.502Z,11.60
2019-06-10T16:44:56.770Z,12.40
2019-06-10T16:47:27.281Z,10.28
2019-06-10T16:49:57.673Z,11.60
2019-06-10T16:52:27.575Z,11.88
2019-06-10T16:54:58.040Z,11.60
2019-06-10T16:57:27.423Z,10.18
2019-06-10T16:59:56.712Z,11.57
2019-06-10T17:02:26.884Z,11.15
2019-06-10T17:04:58.493Z,9.88
2019-06-10T17:07:29.165Z,9.78
2019-06-10T17:09:59.480Z,10.03
2019-06-10T17:12:30.213Z,10.32
2019-06-10T17:14:59.741Z,9.78
2019-06-10T17:17:29.956Z,10.15
2019-06-10T17:20:03.545Z,11.68
2019-06-10T17:22:32.836Z,9.90
2019-06-10T17:25:04.114Z,11.70
2019-06-10T17:27:33.382Z,9.88
2019-06-10T17:30:02.999Z,10.72
2019-06-10T17:32:33.699Z,10.70
2019-06-10T17:35:03.158Z,11.80
2019-06-10T17:37:33.679Z,11.70
2019-06-10T17:40:04.592Z,11.45
2019-06-10T17:42:38.153Z,12.50
2019-06-10T17:45:05.878Z,11.88
2019-06-10T17:47:35.156Z,14.07
2019-06-10T17:50:06.472Z,10.65
2019-06-10T17:52:38.788Z,13.62
2019-06-10T17:55:07.629Z,11.73
2019-06-10T17:57:37.009Z,12.63
2019-06-10T18:00:12.165Z,12.43
2019-06-10T18:02:42.561Z,11.25
2019-06-10T18:05:12.768Z,12.15
2019-06-10T18:07:42.306Z,10.50
2019-06-10T18:10:13.220Z,12.98
2019-06-10T18:12:43.735Z,11.22
2019-06-10T18:15:13.164Z,11.28
2019-06-10T18:17:42.701Z,12.28
2019-06-10T18:20:13.662Z,11.45
2019-06-10T18:22:43.125Z,11.25
2019-06-10T18:25:12.449Z,12.40
2019-06-10T18:27:42.783Z,10.93
2019-06-10T18:30:14.304Z,12.55
2019-06-10T18:32:43.082Z,14.35
2019-06-10T18:35:14.313Z,9.88
2019-06-10T18:37:43.654Z,10.65
2019-06-10T18:40:14.606Z,11.28
2019-06-10T18:42:44.168Z,11.18
2019-06-10T18:45:13.580Z,11.53
2019-06-10T18:47:43.285Z,11.45
2019-06-10T18:50:13.696Z,10.70
2019-06-10T18:52:43.420Z,12.53
2019-06-10T18:55:12.855Z,12.23
2019-06-10T18:57:42.984Z,10.98
2019-06-10T19:00:14.701Z,10.90
2019-06-10T19:02:45.320Z,10.40
2019-06-10T19:05:14.761Z,9.80
2019-06-10T19:07:46.810Z,9.95
2019-06-10T19:10:15.396Z,10.28
2019-06-10T19:12:44.759Z,10.50
2019-06-10T19:15:14.696Z,9.88
2019-06-10T19:17:44.508Z,10.15
2019-06-10T19:20:14.859Z,10.55
2019-06-10T19:22:44.147Z,10.28
2019-06-10T19:25:13.639Z,10.08
2019-06-10T19:27:44.282Z,10.32
2019-06-10T19:30:14.718Z,10.98
2019-06-10T19:32:44.419Z,10.43
2019-06-10T19:35:13.859Z,10.55
2019-06-10T19:37:43.728Z,10.18
2019-06-10T19:40:13.095Z,10.68
2019-06-10T19:42:44.458Z,10.05
2019-06-10T19:45:13.402Z,10.43
2019-06-10T19:47:45.611Z,11.25
2019-06-10T19:50:13.878Z,10.43
2019-06-10T19:52:45.339Z,10.80
2019-06-10T19:55:14.173Z,10.30
2019-06-10T19:57:43.723Z,10.68
2019-06-10T20:00:13.160Z,10.80
2019-06-10T20:02:45.203Z,10.68
2019-06-10T20:05:13.556Z,10.95
2019-06-10T20:07:48.475Z,10.48
2019-06-10T20:10:13.948Z,10.90
2019-06-10T20:12:46.010Z,11.28
2019-06-10T20:15:24.284Z,11.08
2019-06-10T20:17:54.719Z,11.00
2019-06-10T20:20:24.020Z,11.75
2019-06-10T20:22:57.141Z,12.00
2019-06-10T20:25:24.246Z,10.63
2019-06-10T20:27:53.931Z,10.63
2019-06-10T20:30:28.273Z,11.03
2019-06-10T20:32:56.087Z,11.00
2019-06-10T20:35:25.276Z,11.35
2019-06-10T20:37:54.586Z,11.75
2019-06-10T20:40:23.878Z,11.50
2019-06-10T20:42:53.172Z,11.12
2019-06-10T20:45:23.148Z,12.10
2019-06-10T20:47:53.354Z,11.53
2019-06-10T20:50:22.896Z,11.68
2019-06-10T20:52:52.539Z,11.45
2019-06-10T20:55:24.834Z,11.78
2019-06-10T20:58:03.079Z,12.53
2019-06-10T21:00:37.049Z,11.80
2019-06-10T21:03:06.590Z,11.97
2019-06-10T21:05:35.875Z,12.45
2019-06-10T21:08:05.465Z,11.78
2019-06-10T21:10:36.368Z,13.58
2019-06-10T21:13:06.384Z,14.07
2019-06-10T21:15:40.527Z,12.25
2019-06-10T21:18:13.024Z,12.70
2019-06-10T21:20:46.590Z,11.63
2019-06-10T21:23:15.954Z,12.47
2019-06-10T21:25:46.155Z,12.45
2019-06-10T21:28:14.572Z,13.98
2019-06-10T21:30:49.626Z,13.18
2019-06-10T21:33:15.703Z,11.95
2019-06-10T21:35:46.879Z,12.05
2019-06-10T21:38:15.926Z,13.20
2019-06-10T21:40:46.630Z,12.65
2019-06-10T21:43:16.310Z,13.48
2019-06-10T21:45:51.256Z,13.95
2019-06-10T21:48:16.653Z,12.55
2019-06-10T21:50:48.129Z,13.08
2019-06-10T21:53:17.785Z,12.90
2019-06-10T21:55:47.125Z,12.58
2019-06-10T21:58:16.436Z,15.50
2019-06-10T22:00:58.026Z,13.08
2019-06-10T22:03:19.447Z,12.55
2019-06-10T22:05:49.536Z,12.47
2019-06-10T22:08:19.125Z,12.73
2019-06-10T22:10:48.501Z,13.80
2019-06-10T22:13:17.801Z,12.68
2019-06-10T22:15:48.276Z,13.35
2019-06-10T22:18:17.814Z,13.93
2019-06-10T22:20:47.129Z,15.08
2019-06-10T22:23:16.448Z,13.30
2019-06-10T22:25:46.794Z,16.50
2019-06-10T22:28:16.216Z,15.03
2019-06-10T22:30:45.513Z,13.40
2019-06-10T22:33:14.932Z,13.83
2019-06-10T22:35:45.405Z,13.28
2019-06-10T22:38:14.753Z,12.78
2019-06-10T22:40:44.164Z,13.50
2019-06-10T22:43:13.481Z,13.35
2019-06-10T22:45:42.812Z,12.37
2019-06-10T22:48:12.265Z,13.68
2019-06-10T22:50:43.704Z,12.40
2019-06-10T22:53:13.162Z,13.55
2019-06-10T22:55:43.300Z,13.40
2019-06-10T22:58:14.484Z,13.90
2019-06-10T23:00:43.938Z,12.23
2019-06-10T23:03:15.153Z,15.90
2019-06-10T23:05:44.485Z,12.37
2019-06-10T23:08:13.772Z,13.13
2019-06-10T23:10:43.111Z,12.47
2019-06-10T23:13:13.358Z,12.50
2019-06-10T23:15:43.367Z,12.30
2019-06-10T23:18:12.932Z,12.63
2019-06-10T23:20:43.378Z,11.30
2019-06-10T23:23:12.951Z,12.37
2019-06-10T23:25:42.936Z,12.03
2019-06-10T23:28:13.154Z,11.68
2019-06-10T23:30:43.016Z,12.28
2019-06-10T23:33:12.737Z,12.18
2019-06-10T23:35:43.212Z,12.70
2019-06-10T23:38:13.425Z,12.37
2019-06-10T23:40:43.196Z,12.13
2019-06-10T23:43:13.279Z,12.18
2019-06-10T23:45:42.760Z,12.10
2019-06-10T23:48:13.343Z,11.78
2019-06-10T23:50:43.795Z,11.75
2019-06-10T23:53:13.442Z,12.25
2019-06-10T23:55:43.001Z,11.75
2019-06-10T23:58:13.499Z,11.68
